Terminal Aerodrome Forecast
Issued by NWS Caribou, ME

Home | Current Version | Previous Version | Text Only | Print | Product List | Glossary On
Versions: 1 2 3 4 5 6 7 8 9 10 11 12
000
FTUS41 KCAR 230500
TAFCAR
TAF
KCAR 230534Z 2306/2406 24008KT P6SM SCT250
     FM231400 22010G17KT P6SM SCT050 BKN200
     FM231700 21012G20KT 6SM SHRA VCTS SCT035CB OVC120
      TEMPO 2317/2320 VRB15G40KT 2SM +TSRA OVC025CB
     FM232000 26008KT P6SM VCSH SCT040 BKN080
     FM232200 30012KT P6SM SCT060=

USA.gov is the U.S. government's official web portal to all federal, state and local government web resources and services.